sensor_id;sensor_type;location;lat;lon;timestamp;temperature;humidity
10433;DHT22;5263;48.680;9.004;2022-09-12T00:01:06;11.10;99.90
10433;DHT22;5263;48.680;9.004;2022-09-12T00:03:33;11.20;99.90
10433;DHT22;5263;48.680;9.004;2022-09-12T00:05:59;11.40;99.90
10433;DHT22;5263;48.680;9.004;2022-09-12T00:08:24;11.30;99.90
10433;DHT22;5263;48.680;9.004;2022-09-12T00:10:50;11.40;99.90
10433;DHT22;5263;48.680;9.004;2022-09-12T00:13:15;11.40;99.90
10433;DHT22;5263;48.680;9.004;2022-09-12T00:15:42;11.30;99.90
10433;DHT22;5263;48.680;9.004;2022-09-12T00:18:12;11.00;99.90
10433;DHT22;5263;48.680;9.004;2022-09-12T00:20:42;11.10;99.90
10433;DHT22;5263;48.680;9.004;2022-09-12T00:23:08;11.10;99.90
10433;DHT22;5263;48.680;9.004;2022-09-12T00:25:39;11.20;99.90
10433;DHT22;5263;48.680;9.004;2022-09-12T00:28:05;11.20;99.90
10433;DHT22;5263;48.680;9.004;2022-09-12T00:30:31;11.40;99.90
10433;DHT22;5263;48.680;9.004;2022-09-12T00:32:56;11.40;99.90
10433;DHT22;5263;48.680;9.004;2022-09-12T00:35:22;11.40;99.90
10433;DHT22;5263;48.680;9.004;2022-09-12T00:37:47;11.40;99.90
10433;DHT22;5263;48.680;9.004;2022-09-12T00:40:13;11.30;99.90
10433;DHT22;5263;48.680;9.004;2022-09-12T00:42:39;11.10;99.90
10433;DHT22;5263;48.680;9.004;2022-09-12T00:45:05;11.00;99.90
10433;DHT22;5263;48.680;9.004;2022-09-12T00:47:31;11.20;99.90
10433;DHT22;5263;48.680;9.004;2022-09-12T00:50:09;11.10;99.90
10433;DHT22;5263;48.680;9.004;2022-09-12T00:55:20;10.90;99.90
10433;DHT22;5263;48.680;9.004;2022-09-12T00:57:53;11.00;99.90
10433;DHT22;5263;48.680;9.004;2022-09-12T01:00:23;11.00;99.90
10433;DHT22;5263;48.680;9.004;2022-09-12T01:02:59;10.90;99.90
10433;DHT22;5263;48.680;9.004;2022-09-12T01:05:27;10.90;99.90
10433;DHT22;5263;48.680;9.004;2022-09-12T01:07:55;10.70;99.90
10433;DHT22;5263;48.680;9.004;2022-09-12T01:10:23;10.70;99.90
10433;DHT22;5263;48.680;9.004;2022-09-12T01:12:49;10.50;99.90
10433;DHT22;5263;48.680;9.004;2022-09-12T01:15:15;10.40;99.90
10433;DHT22;5263;48.680;9.004;2022-09-12T01:23:19;10.40;99.90
10433;DHT22;5263;48.680;9.004;2022-09-12T01:26:02;10.40;99.90
10433;DHT22;5263;48.680;9.004;2022-09-12T01:31:45;10.60;99.90
10433;DHT22;5263;48.680;9.004;2022-09-12T01:40:02;10.90;99.90
10433;DHT22;5263;48.680;9.004;2022-09-12T01:45:19;10.80;99.90
10433;DHT22;5263;48.680;9.004;2022-09-12T01:48:00;10.90;99.90
10433;DHT22;5263;48.680;9.004;2022-09-12T01:50:31;10.80;99.90
10433;DHT22;5263;48.680;9.004;2022-09-12T01:53:06;10.70;99.90
10433;DHT22;5263;48.680;9.004;2022-09-12T01:55:45;10.50;99.90
10433;DHT22;5263;48.680;9.004;2022-09-12T01:58:16;10.50;99.90
10433;DHT22;5263;48.680;9.004;2022-09-12T02:00:54;10.60;99.90
10433;DHT22;5263;48.680;9.004;2022-09-12T02:03:26;10.60;99.90
10433;DHT22;5263;48.680;9.004;2022-09-12T02:05:56;10.70;99.90
10433;DHT22;5263;48.680;9.004;2022-09-12T02:08:28;10.70;99.90
10433;DHT22;5263;48.680;9.004;2022-09-12T02:10:59;10.70;99.90
10433;DHT22;5263;48.680;9.004;2022-09-12T02:16:08;10.50;99.90
10433;DHT22;5263;48.680;9.004;2022-09-12T02:18:37;10.40;99.90
10433;DHT22;5263;48.680;9.004;2022-09-12T02:21:05;10.30;99.90
10433;DHT22;5263;48.680;9.004;2022-09-12T02:23:33;10.10;99.90
10433;DHT22;5263;48.680;9.004;2022-09-12T02:26:22;10.00;99.90
10433;DHT22;5263;48.680;9.004;2022-09-12T02:28:48;10.10;99.90
10433;DHT22;5263;48.680;9.004;2022-09-12T02:31:47;10.10;99.90
10433;DHT22;5263;48.680;9.004;2022-09-12T02:39:42;10.00;99.90
10433;DHT22;5263;48.680;9.004;2022-09-12T02:42:08;10.10;99.90
10433;DHT22;5263;48.680;9.004;2022-09-12T02:44:34;10.00;99.90
10433;DHT22;5263;48.680;9.004;2022-09-12T02:47:25;10.00;99.90
10433;DHT22;5263;48.680;9.004;2022-09-12T02:49:53;10.20;99.90
10433;DHT22;5263;48.680;9.004;2022-09-12T02:52:18;10.10;99.90
10433;DHT22;5263;48.680;9.004;2022-09-12T02:54:44;10.00;99.90
10433;DHT22;5263;48.680;9.004;2022-09-12T02:57:18;10.10;99.90
10433;DHT22;5263;48.680;9.004;2022-09-12T02:59:45;10.20;99.90
10433;DHT22;5263;48.680;9.004;2022-09-12T03:15:33;9.80;99.90
10433;DHT22;5263;48.680;9.004;2022-09-12T03:24:36;10.00;99.90
10433;DHT22;5263;48.680;9.004;2022-09-12T03:26:57;9.80;99.90
10433;DHT22;5263;48.680;9.004;2022-09-12T03:29:25;9.90;99.90
10433;DHT22;5263;48.680;9.004;2022-09-12T03:31:55;9.80;99.90
10433;DHT22;5263;48.680;9.004;2022-09-12T03:34:22;9.90;99.90
10433;DHT22;5263;48.680;9.004;2022-09-12T03:36:48;9.80;99.90
10433;DHT22;5263;48.680;9.004;2022-09-12T03:39:15;10.00;99.90
10433;DHT22;5263;48.680;9.004;2022-09-12T03:41:41;9.90;99.90
10433;DHT22;5263;48.680;9.004;2022-09-12T03:44:07;9.90;99.90
10433;DHT22;5263;48.680;9.004;2022-09-12T03:46:33;9.90;99.90
10433;DHT22;5263;48.680;9.004;2022-09-12T03:48:58;9.80;99.90
10433;DHT22;5263;48.680;9.004;2022-09-12T03:51:24;9.90;99.90
10433;DHT22;5263;48.680;9.004;2022-09-12T03:53:49;9.60;99.90
10433;DHT22;5263;48.680;9.004;2022-09-12T03:56:15;9.70;99.90
10433;DHT22;5263;48.680;9.004;2022-09-12T03:58:42;9.60;99.90
10433;DHT22;5263;48.680;9.004;2022-09-12T04:03:40;9.50;99.90
10433;DHT22;5263;48.680;9.004;2022-09-12T04:06:07;9.60;99.90
10433;DHT22;5263;48.680;9.004;2022-09-12T04:08:34;9.70;99.90
10433;DHT22;5263;48.680;9.004;2022-09-12T04:11:08;9.70;99.90
10433;DHT22;5263;48.680;9.004;2022-09-12T04:13:35;9.90;99.90
10433;DHT22;5263;48.680;9.004;2022-09-12T04:16:02;10.20;99.90
10433;DHT22;5263;48.680;9.004;2022-09-12T04:18:28;10.40;99.90
10433;DHT22;5263;48.680;9.004;2022-09-12T04:20:53;10.50;99.90
10433;DHT22;5263;48.680;9.004;2022-09-12T04:23:19;10.60;99.90
10433;DHT22;5263;48.680;9.004;2022-09-12T04:25:55;10.70;99.90
10433;DHT22;5263;48.680;9.004;2022-09-12T04:28:21;10.70;99.90
10433;DHT22;5263;48.680;9.004;2022-09-12T04:30:47;10.80;99.90
10433;DHT22;5263;48.680;9.004;2022-09-12T04:33:13;10.60;99.90
10433;DHT22;5263;48.680;9.004;2022-09-12T04:35:39;10.40;99.90
10433;DHT22;5263;48.680;9.004;2022-09-12T04:38:06;10.10;99.90
10433;DHT22;5263;48.680;9.004;2022-09-12T04:40:31;9.90;99.90
10433;DHT22;5263;48.680;9.004;2022-09-12T04:42:58;9.90;99.90
10433;DHT22;5263;48.680;9.004;2022-09-12T04:45:23;9.80;99.90
10433;DHT22;5263;48.680;9.004;2022-09-12T04:47:49;9.60;99.90
10433;DHT22;5263;48.680;9.004;2022-09-12T04:50:15;9.40;99.90
10433;DHT22;5263;48.680;9.004;2022-09-12T04:52:41;9.30;99.90
10433;DHT22;5263;48.680;9.004;2022-09-12T04:55:07;9.40;99.90
10433;DHT22;5263;48.680;9.004;2022-09-12T04:57:34;9.50;99.90
10433;DHT22;5263;48.680;9.004;2022-09-12T04:59:59;9.40;99.90
10433;DHT22;5263;48.680;9.004;2022-09-12T05:02:26;9.50;99.90
10433;DHT22;5263;48.680;9.004;2022-09-12T05:04:51;9.40;99.90
10433;DHT22;5263;48.680;9.004;2022-09-12T05:07:18;9.40;99.90
10433;DHT22;5263;48.680;9.004;2022-09-12T05:09:44;9.30;99.90
10433;DHT22;5263;48.680;9.004;2022-09-12T05:12:11;9.40;99.90
10433;DHT22;5263;48.680;9.004;2022-09-12T05:14:36;9.50;99.90
10433;DHT22;5263;48.680;9.004;2022-09-12T05:17:03;9.50;99.90
10433;DHT22;5263;48.680;9.004;2022-09-12T05:19:30;9.60;99.90
10433;DHT22;5263;48.680;9.004;2022-09-12T05:21:57;9.70;99.90
10433;DHT22;5263;48.680;9.004;2022-09-12T05:24:23;9.50;99.90
10433;DHT22;5263;48.680;9.004;2022-09-12T05:26:49;9.50;99.90
10433;DHT22;5263;48.680;9.004;2022-09-12T05:29:15;9.50;99.90
10433;DHT22;5263;48.680;9.004;2022-09-12T05:31:40;9.50;99.90
10433;DHT22;5263;48.680;9.004;2022-09-12T05:34:06;9.50;99.90
10433;DHT22;5263;48.680;9.004;2022-09-12T05:36:33;9.40;99.90
10433;DHT22;5263;48.680;9.004;2022-09-12T05:38:59;9.40;99.90
10433;DHT22;5263;48.680;9.004;2022-09-12T05:41:27;9.70;99.90
10433;DHT22;5263;48.680;9.004;2022-09-12T05:44:02;9.70;99.90
10433;DHT22;5263;48.680;9.004;2022-09-12T05:46:31;9.70;99.90
10433;DHT22;5263;48.680;9.004;2022-09-12T05:49:04;9.80;99.90
10433;DHT22;5263;48.680;9.004;2022-09-12T05:51:36;9.90;99.90
10433;DHT22;5263;48.680;9.004;2022-09-12T05:54:07;9.90;99.90
10433;DHT22;5263;48.680;9.004;2022-09-12T05:56:36;10.10;99.90
10433;DHT22;5263;48.680;9.004;2022-09-12T05:59:10;10.20;99.90
10433;DHT22;5263;48.680;9.004;2022-09-12T06:01:36;10.30;99.90
10433;DHT22;5263;48.680;9.004;2022-09-12T06:04:04;10.40;99.90
10433;DHT22;5263;48.680;9.004;2022-09-12T06:06:31;10.50;99.90
10433;DHT22;5263;48.680;9.004;2022-09-12T06:08:59;10.70;99.90
10433;DHT22;5263;48.680;9.004;2022-09-12T06:11:27;10.80;99.90
10433;DHT22;5263;48.680;9.004;2022-09-12T06:13:55;11.00;99.90
10433;DHT22;5263;48.680;9.004;2022-09-12T06:16:26;11.20;99.90
10433;DHT22;5263;48.680;9.004;2022-09-12T06:18:54;11.30;99.90
10433;DHT22;5263;48.680;9.004;2022-09-12T06:21:20;11.40;99.90
10433;DHT22;5263;48.680;9.004;2022-09-12T06:23:46;11.60;99.90
10433;DHT22;5263;48.680;9.004;2022-09-12T06:26:13;11.60;99.90
10433;DHT22;5263;48.680;9.004;2022-09-12T06:28:41;11.80;99.90
10433;DHT22;5263;48.680;9.004;2022-09-12T06:31:11;12.00;99.90
10433;DHT22;5263;48.680;9.004;2022-09-12T06:33:40;12.00;99.90
10433;DHT22;5263;48.680;9.004;2022-09-12T06:36:12;12.10;99.90
10433;DHT22;5263;48.680;9.004;2022-09-12T06:38:39;12.20;99.90
10433;DHT22;5263;48.680;9.004;2022-09-12T06:41:07;12.20;99.90
10433;DHT22;5263;48.680;9.004;2022-09-12T06:43:33;12.30;99.90
10433;DHT22;5263;48.680;9.004;2022-09-12T06:46:00;12.50;99.90
10433;DHT22;5263;48.680;9.004;2022-09-12T06:48:26;12.70;99.90
10433;DHT22;5263;48.680;9.004;2022-09-12T06:51:00;12.80;99.90
10433;DHT22;5263;48.680;9.004;2022-09-12T06:53:27;12.90;99.90
10433;DHT22;5263;48.680;9.004;2022-09-12T06:56:01;12.90;99.90
10433;DHT22;5263;48.680;9.004;2022-09-12T06:58:28;12.90;99.90
10433;DHT22;5263;48.680;9.004;2022-09-12T07:01:21;13.00;99.90
10433;DHT22;5263;48.680;9.004;2022-09-12T07:03:49;13.20;99.90
10433;DHT22;5263;48.680;9.004;2022-09-12T07:06:16;13.40;99.90
10433;DHT22;5263;48.680;9.004;2022-09-12T07:08:43;13.50;99.90
10433;DHT22;5263;48.680;9.004;2022-09-12T07:13:38;13.70;99.90
10433;DHT22;5263;48.680;9.004;2022-09-12T07:16:05;14.00;99.90
10433;DHT22;5263;48.680;9.004;2022-09-12T07:18:34;14.00;99.90
10433;DHT22;5263;48.680;9.004;2022-09-12T07:21:00;14.20;99.90
10433;DHT22;5263;48.680;9.004;2022-09-12T07:23:26;14.30;99.90
10433;DHT22;5263;48.680;9.004;2022-09-12T07:25:57;14.40;99.90
10433;DHT22;5263;48.680;9.004;2022-09-12T07:28:24;14.60;99.90
10433;DHT22;5263;48.680;9.004;2022-09-12T07:30:49;14.80;99.90
10433;DHT22;5263;48.680;9.004;2022-09-12T07:33:15;14.90;99.90
10433;DHT22;5263;48.680;9.004;2022-09-12T07:35:42;15.10;99.90
10433;DHT22;5263;48.680;9.004;2022-09-12T07:38:07;15.20;99.90
10433;DHT22;5263;48.680;9.004;2022-09-12T07:40:33;15.40;99.90
10433;DHT22;5263;48.680;9.004;2022-09-12T07:42:59;15.60;99.90
10433;DHT22;5263;48.680;9.004;2022-09-12T07:45:24;15.70;99.90
10433;DHT22;5263;48.680;9.004;2022-09-12T07:47:53;15.90;99.90
10433;DHT22;5263;48.680;9.004;2022-09-12T07:50:18;16.00;99.90
10433;DHT22;5263;48.680;9.004;2022-09-12T07:52:44;16.20;99.90
10433;DHT22;5263;48.680;9.004;2022-09-12T07:55:09;16.40;99.90
10433;DHT22;5263;48.680;9.004;2022-09-12T07:57:35;16.60;99.90
10433;DHT22;5263;48.680;9.004;2022-09-12T08:00:01;16.80;99.90
10433;DHT22;5263;48.680;9.004;2022-09-12T08:02:28;16.90;99.90
10433;DHT22;5263;48.680;9.004;2022-09-12T08:04:53;17.00;99.90
10433;DHT22;5263;48.680;9.004;2022-09-12T08:07:19;17.10;99.90
10433;DHT22;5263;48.680;9.004;2022-09-12T08:09:45;17.20;99.90
10433;DHT22;5263;48.680;9.004;2022-09-12T08:12:10;17.20;99.90
10433;DHT22;5263;48.680;9.004;2022-09-12T08:14:36;17.30;99.90
10433;DHT22;5263;48.680;9.004;2022-09-12T08:17:01;17.40;99.90
10433;DHT22;5263;48.680;9.004;2022-09-12T08:19:27;17.50;99.90
10433;DHT22;5263;48.680;9.004;2022-09-12T08:21:53;17.70;99.90
10433;DHT22;5263;48.680;9.004;2022-09-12T08:24:18;17.70;99.90
10433;DHT22;5263;48.680;9.004;2022-09-12T08:26:44;17.80;99.90
10433;DHT22;5263;48.680;9.004;2022-09-12T08:29:10;17.90;99.90
10433;DHT22;5263;48.680;9.004;2022-09-12T08:31:35;18.10;99.90
10433;DHT22;5263;48.680;9.004;2022-09-12T08:34:03;18.10;99.90
10433;DHT22;5263;48.680;9.004;2022-09-12T08:36:29;18.20;99.90
10433;DHT22;5263;48.680;9.004;2022-09-12T08:38:58;18.20;99.90
10433;DHT22;5263;48.680;9.004;2022-09-12T08:41:25;18.30;99.90
10433;DHT22;5263;48.680;9.004;2022-09-12T08:47:20;18.30;99.90
10433;DHT22;5263;48.680;9.004;2022-09-12T08:49:49;18.50;99.90
10433;DHT22;5263;48.680;9.004;2022-09-12T08:52:30;18.60;99.90
10433;DHT22;5263;48.680;9.004;2022-09-12T08:54:57;18.60;99.90
10433;DHT22;5263;48.680;9.004;2022-09-12T08:57:24;18.80;99.90
10433;DHT22;5263;48.680;9.004;2022-09-12T08:59:50;19.00;99.90
10433;DHT22;5263;48.680;9.004;2022-09-12T09:05:24;19.30;99.90
10433;DHT22;5263;48.680;9.004;2022-09-12T09:08:15;19.40;99.90
10433;DHT22;5263;48.680;9.004;2022-09-12T09:10:55;19.50;99.90
10433;DHT22;5263;48.680;9.004;2022-09-12T09:13:35;19.60;99.90
10433;DHT22;5263;48.680;9.004;2022-09-12T09:16:32;19.70;99.90
10433;DHT22;5263;48.680;9.004;2022-09-12T09:19:11;19.80;99.90
10433;DHT22;5263;48.680;9.004;2022-09-12T09:21:59;19.90;99.90
10433;DHT22;5263;48.680;9.004;2022-09-12T09:24:31;20.00;99.90
10433;DHT22;5263;48.680;9.004;2022-09-12T09:27:12;20.00;99.90
10433;DHT22;5263;48.680;9.004;2022-09-12T09:29:43;20.20;99.90
10433;DHT22;5263;48.680;9.004;2022-09-12T09:32:18;20.40;99.90
10433;DHT22;5263;48.680;9.004;2022-09-12T09:34:46;20.40;99.90
10433;DHT22;5263;48.680;9.004;2022-09-12T09:37:40;20.40;99.90
10433;DHT22;5263;48.680;9.004;2022-09-12T09:40:36;20.50;99.90
10433;DHT22;5263;48.680;9.004;2022-09-12T09:43:22;20.80;99.90
10433;DHT22;5263;48.680;9.004;2022-09-12T09:45:50;20.90;99.90
10433;DHT22;5263;48.680;9.004;2022-09-12T09:48:31;21.40;99.90
10433;DHT22;5263;48.680;9.004;2022-09-12T09:50:59;21.60;99.90
10433;DHT22;5263;48.680;9.004;2022-09-12T09:56:35;25.40;99.90
10433;DHT22;5263;48.680;9.004;2022-09-12T09:59:31;25.70;99.90
10433;DHT22;5263;48.680;9.004;2022-09-12T10:04:40;31.20;76.70
10433;DHT22;5263;48.680;9.004;2022-09-12T10:07:17;32.80;64.70
10433;DHT22;5263;48.680;9.004;2022-09-12T10:10:18;33.30;58.50
10433;DHT22;5263;48.680;9.004;2022-09-12T10:12:44;30.60;60.80
10433;DHT22;5263;48.680;9.004;2022-09-12T10:15:20;33.00;58.80
10433;DHT22;5263;48.680;9.004;2022-09-12T10:17:48;34.50;53.50
10433;DHT22;5263;48.680;9.004;2022-09-12T10:20:32;35.50;51.00
10433;DHT22;5263;48.680;9.004;2022-09-12T10:23:17;35.70;47.60
10433;DHT22;5263;48.680;9.004;2022-09-12T10:26:10;35.10;44.20
10433;DHT22;5263;48.680;9.004;2022-09-12T10:28:40;36.00;44.10
10433;DHT22;5263;48.680;9.004;2022-09-12T10:31:08;36.60;42.20
10433;DHT22;5263;48.680;9.004;2022-09-12T10:33:46;36.40;41.40
10433;DHT22;5263;48.680;9.004;2022-09-12T10:36:18;37.50;40.30
10433;DHT22;5263;48.680;9.004;2022-09-12T10:38:57;35.70;43.40
10433;DHT22;5263;48.680;9.004;2022-09-12T10:41:23;34.40;40.60
10433;DHT22;5263;48.680;9.004;2022-09-12T10:43:49;36.00;39.60
10433;DHT22;5263;48.680;9.004;2022-09-12T10:48:45;35.70;41.50
10433;DHT22;5263;48.680;9.004;2022-09-12T10:53:49;34.90;41.20
10433;DHT22;5263;48.680;9.004;2022-09-12T10:56:24;33.40;42.00
10433;DHT22;5263;48.680;9.004;2022-09-12T11:04:23;37.10;38.40
10433;DHT22;5263;48.680;9.004;2022-09-12T11:12:47;34.50;42.40
10433;DHT22;5263;48.680;9.004;2022-09-12T11:18:10;35.70;38.50
10433;DHT22;5263;48.680;9.004;2022-09-12T11:20:43;35.60;37.90
10433;DHT22;5263;48.680;9.004;2022-09-12T11:33:51;33.20;44.50
10433;DHT22;5263;48.680;9.004;2022-09-12T11:36:32;34.90;42.80
10433;DHT22;5263;48.680;9.004;2022-09-12T11:39:33;33.90;39.70
10433;DHT22;5263;48.680;9.004;2022-09-12T11:42:02;34.30;41.00
10433;DHT22;5263;48.680;9.004;2022-09-12T11:44:36;35.60;39.00
10433;DHT22;5263;48.680;9.004;2022-09-12T11:47:07;35.90;39.00
10433;DHT22;5263;48.680;9.004;2022-09-12T11:49:49;36.00;38.20
10433;DHT22;5263;48.680;9.004;2022-09-12T11:52:18;36.20;38.30
10433;DHT22;5263;48.680;9.004;2022-09-12T12:00:04;36.00;39.20
10433;DHT22;5263;48.680;9.004;2022-09-12T12:05:19;36.30;38.70
10433;DHT22;5263;48.680;9.004;2022-09-12T12:07:55;37.00;36.60
10433;DHT22;5263;48.680;9.004;2022-09-12T12:10:37;37.50;36.70
10433;DHT22;5263;48.680;9.004;2022-09-12T12:13:13;36.90;37.60
10433;DHT22;5263;48.680;9.004;2022-09-12T12:16:12;37.60;36.30
10433;DHT22;5263;48.680;9.004;2022-09-12T12:18:39;38.00;35.00
10433;DHT22;5263;48.680;9.004;2022-09-12T12:34:38;39.00;33.60
10433;DHT22;5263;48.680;9.004;2022-09-12T12:47:40;36.50;35.00
10433;DHT22;5263;48.680;9.004;2022-09-12T12:52:49;38.70;30.80
10433;DHT22;5263;48.680;9.004;2022-09-12T12:57:52;39.30;30.00
10433;DHT22;5263;48.680;9.004;2022-09-12T13:08:10;39.20;30.40
10433;DHT22;5263;48.680;9.004;2022-09-12T13:10:36;39.70;30.70
10433;DHT22;5263;48.680;9.004;2022-09-12T13:13:05;38.60;32.30
10433;DHT22;5263;48.680;9.004;2022-09-12T13:18:25;38.50;30.00
10433;DHT22;5263;48.680;9.004;2022-09-12T13:21:17;39.00;30.30
10433;DHT22;5263;48.680;9.004;2022-09-12T13:23:43;38.70;30.90
10433;DHT22;5263;48.680;9.004;2022-09-12T13:26:21;37.80;31.70
10433;DHT22;5263;48.680;9.004;2022-09-12T13:28:47;34.30;35.90
10433;DHT22;5263;48.680;9.004;2022-09-12T13:31:24;35.00;36.20
10433;DHT22;5263;48.680;9.004;2022-09-12T13:33:59;34.30;37.30
10433;DHT22;5263;48.680;9.004;2022-09-12T13:45:04;31.80;40.10
10433;DHT22;5263;48.680;9.004;2022-09-12T13:47:34;31.20;40.50
10433;DHT22;5263;48.680;9.004;2022-09-12T13:50:02;31.10;41.60
10433;DHT22;5263;48.680;9.004;2022-09-12T13:52:31;30.50;41.20
10433;DHT22;5263;48.680;9.004;2022-09-12T13:54:58;30.10;42.10
10433;DHT22;5263;48.680;9.004;2022-09-12T13:59:55;28.90;44.70
10433;DHT22;5263;48.680;9.004;2022-09-12T14:02:23;29.10;44.50
10433;DHT22;5263;48.680;9.004;2022-09-12T14:04:51;28.20;45.70
10433;DHT22;5263;48.680;9.004;2022-09-12T14:10:15;27.00;49.40
10433;DHT22;5263;48.680;9.004;2022-09-12T14:12:42;26.80;48.90
10433;DHT22;5263;48.680;9.004;2022-09-12T14:15:22;27.20;48.30
10433;DHT22;5263;48.680;9.004;2022-09-12T14:17:53;27.30;47.90
10433;DHT22;5263;48.680;9.004;2022-09-12T14:20:20;27.50;48.00
10433;DHT22;5263;48.680;9.004;2022-09-12T14:22:50;27.50;47.90
10433;DHT22;5263;48.680;9.004;2022-09-12T14:25:22;26.90;49.00
10433;DHT22;5263;48.680;9.004;2022-09-12T14:27:54;26.90;48.30
10433;DHT22;5263;48.680;9.004;2022-09-12T14:33:21;25.90;52.80
10433;DHT22;5263;48.680;9.004;2022-09-12T14:35:52;25.50;54.10
10433;DHT22;5263;48.680;9.004;2022-09-12T14:38:35;26.00;52.80
10433;DHT22;5263;48.680;9.004;2022-09-12T14:41:05;26.30;49.70
10433;DHT22;5263;48.680;9.004;2022-09-12T14:43:37;26.40;49.70
10433;DHT22;5263;48.680;9.004;2022-09-12T14:46:27;27.40;49.20
10433;DHT22;5263;48.680;9.004;2022-09-12T14:51:37;29.30;44.20
10433;DHT22;5263;48.680;9.004;2022-09-12T14:54:04;29.50;43.60
10433;DHT22;5263;48.680;9.004;2022-09-12T14:56:41;29.30;44.80
10433;DHT22;5263;48.680;9.004;2022-09-12T14:59:43;28.90;43.10
10433;DHT22;5263;48.680;9.004;2022-09-12T15:04:49;28.00;45.40
10433;DHT22;5263;48.680;9.004;2022-09-12T15:07:31;27.60;45.90
10433;DHT22;5263;48.680;9.004;2022-09-12T15:09:58;26.90;46.50
10433;DHT22;5263;48.680;9.004;2022-09-12T15:12:25;26.70;47.80
10433;DHT22;5263;48.680;9.004;2022-09-12T15:14:50;26.80;48.30
10433;DHT22;5263;48.680;9.004;2022-09-12T15:17:16;26.30;49.70
10433;DHT22;5263;48.680;9.004;2022-09-12T15:19:42;26.40;49.40
10433;DHT22;5263;48.680;9.004;2022-09-12T15:22:13;26.10;49.40
10433;DHT22;5263;48.680;9.004;2022-09-12T15:24:39;25.70;50.00
10433;DHT22;5263;48.680;9.004;2022-09-12T15:27:09;25.70;51.10
10433;DHT22;5263;48.680;9.004;2022-09-12T15:29:38;26.00;50.40
10433;DHT22;5263;48.680;9.004;2022-09-12T15:32:05;26.30;49.70
10433;DHT22;5263;48.680;9.004;2022-09-12T15:34:31;26.30;50.30
10433;DHT22;5263;48.680;9.004;2022-09-12T15:36:57;26.10;51.40
10433;DHT22;5263;48.680;9.004;2022-09-12T15:39:23;26.00;50.30
10433;DHT22;5263;48.680;9.004;2022-09-12T15:41:48;25.80;50.20
10433;DHT22;5263;48.680;9.004;2022-09-12T15:44:14;25.60;50.90
10433;DHT22;5263;48.680;9.004;2022-09-12T15:46:40;25.60;51.30
10433;DHT22;5263;48.680;9.004;2022-09-12T15:49:06;25.30;52.10
10433;DHT22;5263;48.680;9.004;2022-09-12T15:51:32;25.30;51.70
10433;DHT22;5263;48.680;9.004;2022-09-12T15:53:58;25.30;52.20
10433;DHT22;5263;48.680;9.004;2022-09-12T15:56:24;25.00;52.70
10433;DHT22;5263;48.680;9.004;2022-09-12T15:58:50;25.10;53.60
10433;DHT22;5263;48.680;9.004;2022-09-12T16:01:16;25.10;50.90
10433;DHT22;5263;48.680;9.004;2022-09-12T16:03:44;25.10;51.40
10433;DHT22;5263;48.680;9.004;2022-09-12T16:06:10;24.80;52.90
10433;DHT22;5263;48.680;9.004;2022-09-12T16:08:36;24.60;53.80
10433;DHT22;5263;48.680;9.004;2022-09-12T16:11:07;24.60;53.90
10433;DHT22;5263;48.680;9.004;2022-09-12T16:13:35;24.60;53.70
10433;DHT22;5263;48.680;9.004;2022-09-12T16:16:01;24.60;54.20
10433;DHT22;5263;48.680;9.004;2022-09-12T16:18:27;24.30;54.40
10433;DHT22;5263;48.680;9.004;2022-09-12T16:20:54;24.20;55.80
10433;DHT22;5263;48.680;9.004;2022-09-12T16:23:20;24.10;57.20
10433;DHT22;5263;48.680;9.004;2022-09-12T16:25:58;24.00;58.40
10433;DHT22;5263;48.680;9.004;2022-09-12T16:28:24;23.80;58.40
10433;DHT22;5263;48.680;9.004;2022-09-12T16:31:00;23.70;58.60
10433;DHT22;5263;48.680;9.004;2022-09-12T16:33:28;23.60;59.60
10433;DHT22;5263;48.680;9.004;2022-09-12T16:36:11;23.50;59.80
10433;DHT22;5263;48.680;9.004;2022-09-12T16:38:41;23.30;61.00
10433;DHT22;5263;48.680;9.004;2022-09-12T16:41:07;23.20;61.60
10433;DHT22;5263;48.680;9.004;2022-09-12T16:43:34;23.20;62.60
10433;DHT22;5263;48.680;9.004;2022-09-12T16:46:02;23.00;63.30
10433;DHT22;5263;48.680;9.004;2022-09-12T16:48:28;23.00;63.00
10433;DHT22;5263;48.680;9.004;2022-09-12T16:50:58;23.00;64.00
10433;DHT22;5263;48.680;9.004;2022-09-12T16:53:32;23.00;63.90
10433;DHT22;5263;48.680;9.004;2022-09-12T16:55:58;22.90;64.50
10433;DHT22;5263;48.680;9.004;2022-09-12T16:58:24;22.80;64.30
10433;DHT22;5263;48.680;9.004;2022-09-12T17:01:05;22.60;64.90
10433;DHT22;5263;48.680;9.004;2022-09-12T17:03:32;22.60;65.50
10433;DHT22;5263;48.680;9.004;2022-09-12T17:06:06;22.70;66.00
10433;DHT22;5263;48.680;9.004;2022-09-12T17:08:34;22.70;66.00
10433;DHT22;5263;48.680;9.004;2022-09-12T17:11:02;22.70;66.00
10433;DHT22;5263;48.680;9.004;2022-09-12T17:13:29;22.40;66.60
10433;DHT22;5263;48.680;9.004;2022-09-12T17:15:55;22.40;67.70
10433;DHT22;5263;48.680;9.004;2022-09-12T17:18:21;22.40;68.00
10433;DHT22;5263;48.680;9.004;2022-09-12T17:20:49;22.20;68.70
10433;DHT22;5263;48.680;9.004;2022-09-12T17:23:15;22.00;69.60
10433;DHT22;5263;48.680;9.004;2022-09-12T17:25:50;21.90;70.60
10433;DHT22;5263;48.680;9.004;2022-09-12T17:28:17;21.80;71.00
10433;DHT22;5263;48.680;9.004;2022-09-12T17:30:43;21.80;72.00
10433;DHT22;5263;48.680;9.004;2022-09-12T17:33:08;21.50;71.10
10433;DHT22;5263;48.680;9.004;2022-09-12T17:35:36;21.40;72.20
10433;DHT22;5263;48.680;9.004;2022-09-12T17:38:02;21.40;72.90
10433;DHT22;5263;48.680;9.004;2022-09-12T17:40:28;21.40;74.30
10433;DHT22;5263;48.680;9.004;2022-09-12T17:42:54;21.30;74.50
10433;DHT22;5263;48.680;9.004;2022-09-12T17:45:21;21.30;75.50
10433;DHT22;5263;48.680;9.004;2022-09-12T17:47:46;21.20;76.30
10433;DHT22;5263;48.680;9.004;2022-09-12T17:50:12;21.20;77.30
10433;DHT22;5263;48.680;9.004;2022-09-12T17:52:38;21.00;77.80
10433;DHT22;5263;48.680;9.004;2022-09-12T17:55:04;20.90;78.30
10433;DHT22;5263;48.680;9.004;2022-09-12T17:57:29;20.90;79.20
10433;DHT22;5263;48.680;9.004;2022-09-12T17:59:55;20.80;79.80
10433;DHT22;5263;48.680;9.004;2022-09-12T18:02:21;20.70;80.90
10433;DHT22;5263;48.680;9.004;2022-09-12T18:04:46;20.50;81.30
10433;DHT22;5263;48.680;9.004;2022-09-12T18:07:16;20.40;82.50
10433;DHT22;5263;48.680;9.004;2022-09-12T18:09:43;20.40;83.40
10433;DHT22;5263;48.680;9.004;2022-09-12T18:12:11;20.30;84.50
10433;DHT22;5263;48.680;9.004;2022-09-12T18:14:37;20.20;86.60
10433;DHT22;5263;48.680;9.004;2022-09-12T18:17:03;20.00;87.80
10433;DHT22;5263;48.680;9.004;2022-09-12T18:19:31;20.00;88.50
10433;DHT22;5263;48.680;9.004;2022-09-12T18:21:56;20.00;89.20
10433;DHT22;5263;48.680;9.004;2022-09-12T18:24:23;19.90;90.10
10433;DHT22;5263;48.680;9.004;2022-09-12T18:26:49;19.80;90.40
10433;DHT22;5263;48.680;9.004;2022-09-12T18:29:15;19.70;90.90
10433;DHT22;5263;48.680;9.004;2022-09-12T18:31:42;19.50;91.90
10433;DHT22;5263;48.680;9.004;2022-09-12T18:34:09;19.40;92.70
10433;DHT22;5263;48.680;9.004;2022-09-12T18:36:41;19.30;93.30
10433;DHT22;5263;48.680;9.004;2022-09-12T18:39:07;19.10;94.50
10433;DHT22;5263;48.680;9.004;2022-09-12T18:41:33;19.00;94.70
10433;DHT22;5263;48.680;9.004;2022-09-12T18:44:00;19.00;95.00
10433;DHT22;5263;48.680;9.004;2022-09-12T18:46:28;19.00;95.50
10433;DHT22;5263;48.680;9.004;2022-09-12T18:48:55;18.90;96.30